createdAt,value
2023-03-23T16:02:25.524Z,98094.20
2023-03-23T16:07:27.584Z,98095.64
2023-03-23T16:12:29.330Z,98102.89
2023-03-23T16:17:31.163Z,98099.52
2023-03-23T16:22:32.988Z,98099.67
2023-03-23T16:27:35.076Z,98103.15
2023-03-23T16:37:37.497Z,98117.27
2023-03-23T16:42:39.476Z,98117.15
2023-03-23T16:47:42.425Z,98114.67
2023-03-23T16:52:47.648Z,98113.45
2023-03-23T16:57:49.378Z,98120.05
2023-03-23T17:02:52.622Z,98119.54
2023-03-23T17:07:55.966Z,98121.94
2023-03-23T17:12:58.059Z,98128.23
2023-03-23T17:17:59.904Z,98125.06
2023-03-23T17:23:02.172Z,98130.60
2023-03-23T17:28:05.873Z,98137.31
2023-03-23T17:33:09.971Z,98130.43
2023-03-23T17:38:11.998Z,98123.51
2023-03-23T17:43:13.713Z,98119.02
2023-03-23T17:48:15.612Z,98126.81
2023-03-23T17:53:18.703Z,98145.09
2023-03-23T17:58:20.844Z,98146.59
2023-03-23T18:03:24.545Z,98144.95
2023-03-23T18:08:26.992Z,98144.98
2023-03-23T18:13:31.774Z,98152.23
2023-03-23T18:18:34.097Z,98164.52
2023-03-23T18:23:46.181Z,98172.47
2023-03-23T18:28:56.071Z,98165.37
2023-03-23T18:33:58.084Z,98171.21
2023-03-23T18:39:00.073Z,98164.29
2023-03-23T18:44:01.776Z,98162.58
2023-03-23T18:49:04.287Z,98166.02
2023-03-23T18:54:06.011Z,98171.72
2023-03-23T18:59:07.681Z,98172.77
2023-03-23T19:04:09.558Z,98173.13
2023-03-23T19:09:12.717Z,98174.38
2023-03-23T19:14:14.546Z,98170.48
2023-03-23T19:19:16.584Z,98162.19
2023-03-23T19:24:18.591Z,98157.77
2023-03-23T19:29:26.528Z,98162.52
2023-03-23T19:34:30.520Z,98171.61
2023-03-23T19:39:33.629Z,98178.84
2023-03-23T19:44:36.173Z,98179.33
2023-03-23T19:49:39.010Z,98179.05
2023-03-23T19:54:41.498Z,98181.39
2023-03-23T19:59:44.536Z,98183.74
2023-03-23T20:04:46.884Z,98196.19
2023-03-23T20:09:48.848Z,98211.43
2023-03-23T20:14:50.776Z,98232.30
2023-03-23T20:19:52.549Z,98233.19
2023-03-23T20:24:54.662Z,98233.44
2023-03-23T20:29:57.024Z,98234.89
2023-03-23T20:35:06.405Z,98233.40
2023-03-23T20:40:14.478Z,98229.70
2023-03-23T20:45:18.438Z,98233.91
2023-03-23T20:50:20.310Z,98230.02
2023-03-23T20:55:22.069Z,98215.61
2023-03-23T21:00:23.787Z,98211.28
2023-03-23T21:05:25.811Z,98213.52
2023-03-23T21:10:28.520Z,98220.27
2023-03-23T21:15:31.275Z,98223.39
2023-03-23T21:20:34.119Z,98237.38
2023-03-23T21:25:36.982Z,98228.54
2023-03-23T21:30:45.348Z,98228.49
2023-03-23T21:35:47.326Z,98225.38
2023-03-23T21:40:49.410Z,98231.83
2023-03-23T21:45:55.963Z,98233.92
2023-03-23T21:50:57.677Z,98238.10
2023-03-23T21:55:59.535Z,98236.55
2023-03-23T22:01:02.232Z,98233.86
2023-03-23T22:06:18.333Z,98231.33
2023-03-23T22:11:24.605Z,98233.09
2023-03-23T22:16:28.923Z,98223.80
2023-03-23T22:21:31.492Z,98229.06
2023-03-23T22:26:33.718Z,98228.20
2023-03-23T22:31:39.677Z,98226.02
2023-03-23T22:36:42.279Z,98222.23
2023-03-23T22:41:44.948Z,98224.64
2023-03-23T22:46:48.825Z,98220.82
2023-03-23T22:51:51.644Z,98226.94
2023-03-23T22:56:53.509Z,98227.77
2023-03-23T23:01:55.762Z,98223.58
2023-03-23T23:07:06.686Z,98226.14
2023-03-23T23:12:15.231Z,98227.13
2023-03-23T23:17:17.119Z,98226.36
2023-03-23T23:22:19.600Z,98227.84
2023-03-23T23:27:21.592Z,98231.91
2023-03-23T23:32:23.395Z,98231.17
2023-03-23T23:37:25.306Z,98223.93
2023-03-23T23:42:27.178Z,98225.37
2023-03-23T23:47:29.261Z,98225.23
2023-03-23T23:52:30.990Z,98225.12
2023-03-23T23:57:33.434Z,98227.90
